Time;durP1;ratioP1;P1;durP2;ratioP2;P2;SDS_P1;SDS_P2;PMS_P1;PMS_P2;Temp;Humidity;BMP_temperature;BMP_pressure;BME280_temperature;BME280_humidity;BME280_pressure;Samples;Min_cycle;Max_cycle;Signal;HPM_P1;HPM_P2
2022/10/31 00:01:18;;;;;;;6.30;3.67;;;17.50;91.60;;;17.86;57.36;99138.16;4975129;28;124537;-79
2022/10/31 00:03:45;;;;;;;12.10;4.33;;;17.50;91.60;;;17.84;57.66;99139.69;4973723;28;109231;-80
2022/10/31 00:06:12;;;;;;;6.10;3.97;;;17.40;91.60;;;17.82;57.65;99142.03;4990223;28;108596;-80
2022/10/31 00:08:38;;;;;;;8.83;4.30;;;17.40;91.60;;;17.79;57.52;99139.94;4973858;28;123890;-77
2022/10/31 00:11:09;;;;;;;6.53;3.70;;;17.40;91.70;;;17.76;57.96;99144.22;4972715;28;123413;-78
2022/10/31 00:13:36;;;;;;;7.57;4.07;;;17.40;91.70;;;17.75;57.91;99141.75;4970357;28;109212;-76
2022/10/31 00:16:02;;;;;;;8.23;4.50;;;17.40;91.80;;;17.72;58.06;99139.69;4973218;28;108656;-81
2022/10/31 00:18:29;;;;;;;7.63;4.07;;;17.30;91.80;;;17.71;57.99;99140.84;4969208;28;124138;-76
2022/10/31 00:21:03;;;;;;;6.13;3.97;;;17.30;91.80;;;17.69;58.02;99143.19;4967446;28;124627;-76
2022/10/31 00:23:30;;;;;;;7.87;4.00;;;17.30;91.90;;;17.65;58.24;99129.91;4973123;28;109986;-76
2022/10/31 00:26:02;;;;;;;8.30;4.03;;;17.30;91.90;;;17.64;58.18;99136.66;4970323;28;110198;-79
2022/10/31 00:28:32;;;;;;;5.90;3.80;;;17.30;92.00;;;17.62;58.21;99147.38;4970870;28;124873;-76
2022/10/31 00:31:05;;;;;;;7.27;4.10;;;17.20;92.00;;;17.59;58.28;99142.47;4970238;28;123565;-79
2022/10/31 00:33:36;;;;;;;12.10;5.23;;;17.20;92.00;;;17.56;58.17;99139.56;4968083;28;109493;-75
2022/10/31 00:36:04;;;;;;;11.23;5.13;;;17.20;92.00;;;17.52;58.25;99138.66;4961835;28;108677;-76
2022/10/31 00:38:31;;;;;;;5.43;4.03;;;17.10;92.00;;;17.49;58.12;99142.97;4956312;28;123843;-82
2022/10/31 00:40:57;;;;;;;9.13;4.30;;;17.10;92.00;;;17.45;58.11;99128.88;4953658;28;124151;-82
2022/10/31 00:43:24;;;;;;;12.50;4.30;;;17.10;92.00;;;17.43;58.21;99135.97;4954185;28;109141;-79
2022/10/31 00:45:50;;;;;;;7.47;4.13;;;17.00;91.90;;;17.40;58.04;99150.66;4969731;28;108810;-77
2022/10/31 00:48:17;;;;;;;14.83;4.50;;;17.00;91.90;;;17.37;58.10;99137.38;4970503;28;123895;-78
2022/10/31 00:50:43;;;;;;;7.40;3.60;;;17.00;91.90;;;17.35;58.15;99145.28;4972610;28;123111;-77
2022/10/31 00:53:10;;;;;;;8.53;4.47;;;17.00;91.90;;;17.33;58.30;99137.28;4971185;28;109082;-76
2022/10/31 00:55:36;;;;;;;8.27;4.70;;;17.10;92.00;;;17.32;58.20;99140.41;4952571;28;108161;-76
2022/10/31 00:58:03;;;;;;;7.47;3.83;;;16.90;92.00;;;17.29;58.41;99141.91;4989556;28;123006;-77
2022/10/31 01:00:30;;;;;;;6.73;3.60;;;16.90;92.00;;;17.29;58.23;99147.50;4970820;28;123997;-76
2022/10/31 01:02:56;;;;;;;7.03;3.70;;;16.90;92.00;;;17.28;58.15;99139.50;4973231;28;109143;-78
2022/10/31 01:05:23;;;;;;;6.33;3.83;;;16.90;92.00;;;17.26;58.41;99139.81;4972277;28;108831;-77
2022/10/31 01:07:49;;;;;;;5.80;3.97;;;16.80;92.00;;;17.25;58.38;99140.16;4977020;28;124011;-75
2022/10/31 01:10:17;;;;;;;7.23;4.37;;;16.80;92.00;;;17.24;58.31;99136.56;4988746;28;122494;-77
2022/10/31 01:12:47;;;;;;;6.97;3.93;;;16.80;92.10;;;17.21;58.40;99137.25;4970482;28;110230;-77
2022/10/31 01:15:20;;;;;;;8.63;3.87;;;16.80;92.10;;;17.19;58.42;99132.03;4970479;28;109656;-80
2022/10/31 01:17:48;;;;;;;7.00;3.50;;;16.80;92.10;;;17.17;58.13;99139.13;5002459;28;123294;-77
2022/10/31 01:20:16;;;;;;;11.13;4.30;;;16.70;92.10;;;17.15;58.50;99136.69;4972158;28;123642;-79
2022/10/31 01:22:42;;;;;;;13.33;3.97;;;16.70;92.10;;;17.12;58.40;99133.78;4970528;28;109360;-76
2022/10/31 01:25:10;;;;;;;6.13;3.50;;;16.70;92.20;;;17.11;58.66;99134.91;4968944;28;109491;-76
2022/10/31 01:27:36;;;;;;;4.80;3.60;;;16.70;92.20;;;17.09;58.56;99138.06;4971255;28;123623;-76
2022/10/31 01:30:05;;;;;;;8.23;4.40;;;16.70;92.20;;;17.07;58.78;99129.22;4964246;28;123642;-75
2022/10/31 01:32:32;;;;;;;7.90;3.83;;;16.60;92.20;;;17.06;58.84;99135.16;4978729;28;109133;-75
2022/10/31 01:34:58;;;;;;;5.40;3.80;;;16.60;92.30;;;17.04;58.80;99132.72;4971669;28;109439;-77
2022/10/31 01:37:25;;;;;;;10.27;4.70;;;16.60;92.30;;;17.01;58.69;99136.22;4968399;28;123742;-77
2022/10/31 01:39:51;;;;;;;6.70;3.80;;;16.60;92.30;;;17.00;58.76;99137.34;4973093;28;123709;-77
2022/10/31 01:42:22;;;;;;;5.07;3.60;;;16.60;92.30;;;16.99;58.88;99127.38;4969324;28;109170;-77
2022/10/31 01:44:59;;;;;;;5.93;3.07;;;16.60;92.40;;;16.96;58.81;99130.84;4971016;28;108937;-76
2022/10/31 01:47:39;;;;;;;7.00;4.00;;;16.50;92.30;;;16.92;58.82;99139.09;4970252;28;124094;-77
2022/10/31 01:50:14;;;;;;;9.43;3.90;;;16.50;92.40;;;16.90;58.99;99133.06;4969271;28;123681;-76
2022/10/31 01:52:47;;;;;;;4.13;3.40;;;16.50;92.40;;;16.87;59.06;99135.69;4968360;28;109152;-77
2022/10/31 01:55:27;;;;;;;7.53;3.50;;;16.50;92.50;;;16.83;59.08;99123.63;4967449;28;108825;-76
2022/10/31 01:57:58;;;;;;;7.07;3.10;;;16.40;92.50;;;16.80;59.44;99121.53;4987795;28;123670;-77
2022/10/31 02:00:25;;;;;;;6.57;3.97;;;16.40;92.60;;;16.77;59.37;99123.84;4968227;28;123849;-76
2022/10/31 02:02:52;;;;;;;9.13;4.10;;;16.30;92.60;;;16.75;59.39;99112.16;4972572;28;110412;-76
2022/10/31 02:05:25;;;;;;;8.10;3.80;;;16.30;92.60;;;16.74;59.39;99120.91;4971004;28;110188;-79
2022/10/31 02:08:01;;;;;;;8.20;4.10;;;16.30;92.60;;;16.73;59.60;99120.06;4971776;28;123494;-77
2022/10/31 02:10:32;;;;;;;8.07;4.20;;;16.30;92.70;;;16.71;59.47;99119.63;4968008;28;123812;-77
2022/10/31 02:13:02;;;;;;;8.90;3.63;;;16.30;92.70;;;16.72;59.42;99121.25;4975647;28;108730;-79
2022/10/31 02:15:31;;;;;;;6.77;4.17;;;16.30;92.70;;;16.71;59.54;99116.00;4969631;28;108968;-74
2022/10/31 02:17:59;;;;;;;5.53;3.77;;;16.30;92.70;;;16.71;59.33;99116.81;4969315;28;124095;-75
2022/10/31 02:20:57;;;;;;;8.07;3.57;;;16.30;92.70;;;16.70;59.43;99115.19;4979475;28;123356;-76
2022/10/31 02:23:58;;;;;;;9.00;3.00;;;16.30;92.70;;;16.70;59.33;99114.38;4973448;28;108996;-77
2022/10/31 02:26:43;;;;;;;6.33;3.87;;;16.30;92.80;;;16.67;59.46;99118.66;4968190;28;109486;-76
2022/10/31 02:29:50;;;;;;;7.57;4.27;;;16.20;92.70;;;16.65;59.35;99123.78;4971808;28;124261;-75
2022/10/31 02:32:45;;;;;;;7.90;3.70;;;16.20;92.70;;;16.63;59.24;99125.28;4972945;28;123827;-75
2022/10/31 02:35:40;;;;;;;6.93;3.67;;;16.20;92.70;;;16.61;59.15;99127.63;4969462;28;109868;-79
2022/10/31 02:38:47;;;;;;;8.00;3.60;;;16.20;92.70;;;16.58;59.25;99117.97;4972051;28;108684;-76
2022/10/31 02:41:23;;;;;;;8.10;3.20;;;16.20;92.70;;;16.59;59.41;99124.34;4978816;28;123969;-77
2022/10/31 02:44:09;;;;;;;5.80;3.17;;;16.20;92.70;;;16.57;59.29;99121.88;4970882;28;123257;-77
2022/10/31 02:46:59;;;;;;;7.90;3.53;;;16.10;92.70;;;16.56;59.30;99125.84;4971236;28;108917;-76
2022/10/31 02:49:45;;;;;;;7.03;3.27;;;16.10;92.70;;;16.54;59.34;99125.38;4970015;28;109128;-76
2022/10/31 02:52:23;;;;;;;5.00;2.60;;;16.10;92.70;;;16.53;59.35;99121.78;4954994;28;122971;-77
2022/10/31 02:54:51;;;;;;;7.57;3.77;;;16.10;92.70;;;16.51;59.48;99120.47;4968251;28;123847;-79
2022/10/31 02:57:25;;;;;;;9.20;3.40;;;16.00;93.00;;;16.50;59.54;99122.47;4968447;28;109521;-77
2022/10/31 03:00:00;;;;;;;5.33;3.47;;;16.10;92.80;;;16.50;59.45;99119.69;4969434;28;109925;-78
2022/10/31 03:02:38;;;;;;;11.10;3.90;;;16.00;92.80;;;16.48;59.61;99122.00;4969361;28;124231;-77
2022/10/31 03:05:34;;;;;;;9.20;3.90;;;16.00;92.80;;;16.46;59.63;99112.34;4969380;28;123738;-79
2022/10/31 03:08:20;;;;;;;6.73;3.60;;;16.00;92.80;;;16.44;59.88;99112.69;4970258;28;109286;-79
2022/10/31 03:11:07;;;;;;;5.67;3.17;;;16.00;92.90;;;16.44;59.54;99107.13;4959213;28;108229;-77
2022/10/31 03:13:48;;;;;;;5.03;3.00;;;16.00;92.90;;;16.43;59.63;99116.63;4964499;28;124438;-78
2022/10/31 03:16:27;;;;;;;6.53;3.47;;;16.00;92.90;;;16.45;59.84;99119.09;4970252;28;124917;-77
2022/10/31 03:19:04;;;;;;;5.60;3.10;;;16.00;92.90;;;16.43;59.91;99113.84;4960499;28;109398;-77
2022/10/31 03:21:58;;;;;;;7.50;4.23;;;16.00;92.90;;;16.41;59.85;99106.97;4968266;28;109012;-78
2022/10/31 03:24:30;;;;;;;8.10;4.37;;;16.00;93.00;;;16.42;59.75;99108.63;4945546;28;123466;-77
2022/10/31 03:26:59;;;;;;;6.90;4.20;;;16.00;93.00;;;16.41;59.99;99113.34;4986004;28;123508;-76
2022/10/31 03:29:31;;;;;;;9.20;4.90;;;16.00;93.10;;;16.43;60.12;99110.25;4968460;28;109176;-78
2022/10/31 03:32:04;;;;;;;7.00;3.87;;;16.00;93.10;;;16.41;60.17;99118.13;4955171;28;108041;-76
2022/10/31 03:34:32;;;;;;;12.07;4.73;;;16.00;93.10;;;16.38;60.02;99113.22;4970927;28;122829;-78
2022/10/31 03:37:03;;;;;;;6.13;3.90;;;15.90;93.10;;;16.38;60.12;99113.22;4968309;28;122667;-77
2022/10/31 03:39:31;;;;;;;6.23;3.63;;;15.90;93.10;;;16.36;59.95;99124.72;4968046;28;109185;-76
2022/10/31 03:42:24;;;;;;;5.50;3.90;;;15.90;93.10;;;16.33;60.05;99115.09;4971889;28;108676;-77
2022/10/31 03:45:06;;;;;;;4.77;3.13;;;15.90;93.10;;;16.32;60.03;99121.00;4953974;28;123249;-77
2022/10/31 03:47:35;;;;;;;7.07;3.70;;;15.90;93.40;;;16.29;60.14;99116.94;4970460;28;123537;-76
2022/10/31 03:50:02;;;;;;;6.10;3.80;;;15.90;93.20;;;16.29;59.98;99118.91;4969516;28;110129;-75
2022/10/31 03:52:51;;;;;;;6.10;3.40;;;15.80;93.10;;;16.27;60.15;99124.81;4972402;28;109902;-77
2022/10/31 03:55:26;;;;;;;6.67;4.10;;;15.80;93.20;;;16.26;60.39;99123.19;4970758;28;124077;-77
2022/10/31 03:58:10;;;;;;;5.60;3.53;;;15.80;93.20;;;16.21;60.10;99115.03;4969237;28;124375;-76
2022/10/31 04:00:41;;;;;;;5.60;3.57;;;15.80;93.20;;;16.20;60.34;99112.56;4970470;28;109536;-78
2022/10/31 04:03:17;;;;;;;5.07;3.63;;;15.80;93.30;;;16.19;60.32;99119.31;4971426;28;109740;-78
2022/10/31 04:05:46;;;;;;;10.07;4.20;;;15.80;93.30;;;16.16;60.08;99115.25;4970455;28;123856;-76
2022/10/31 04:08:19;;;;;;;6.33;3.60;;;15.70;93.20;;;16.15;60.36;99110.84;4974165;28;123843;-76
2022/10/31 04:10:49;;;;;;;6.20;4.03;;;15.80;93.30;;;16.11;60.48;99116.25;4971922;28;109281;-77
2022/10/31 04:13:23;;;;;;;5.87;3.30;;;15.70;93.20;;;16.09;60.44;99118.59;4973730;28;108903;-81
2022/10/31 04:15:52;;;;;;;6.80;3.80;;;15.70;93.30;;;16.06;60.68;99118.44;4970159;28;124350;-75
2022/10/31 04:18:18;;;;;;;6.00;3.80;;;15.70;93.30;;;16.05;60.66;99114.84;4971182;28;123444;-77
2022/10/31 04:20:49;;;;;;;7.40;3.80;;;16.50;93.70;;;16.02;60.77;99111.94;4973991;28;109340;-76
2022/10/31 04:23:23;;;;;;;6.57;3.87;;;15.60;93.30;;;16.01;60.54;99104.72;4972311;28;108910;-76
2022/10/31 04:25:49;;;;;;;6.90;4.00;;;15.60;93.40;;;15.99;60.59;99101.47;4970058;28;124153;-75
2022/10/31 04:28:16;;;;;;;6.00;4.37;;;15.50;93.40;;;15.98;60.86;99108.19;4969075;28;123780;-77
2022/10/31 04:30:42;;;;;;;8.77;3.60;;;15.50;93.50;;;15.96;60.87;99102.97;4972159;28;109289;-76
2022/10/31 04:33:09;;;;;;;7.27;3.60;;;15.50;93.50;;;15.95;60.76;99100.50;4972941;28;107965;-76
2022/10/31 04:35:35;;;;;;;5.27;3.30;;;15.50;93.50;;;15.93;61.09;99103.63;4977191;28;124240;-76
2022/10/31 04:38:02;;;;;;;7.87;3.27;;;15.50;93.60;;;15.92;60.86;99102.00;4975984;28;123799;-76
2022/10/31 04:40:29;;;;;;;7.20;3.90;;;15.50;93.60;;;15.92;60.96;99099.22;4970292;28;111099;-76
2022/10/31 04:42:55;;;;;;;8.50;4.17;;;15.50;93.60;;;15.92;61.06;99098.41;4971686;28;110094;-79
2022/10/31 04:45:21;;;;;;;6.80;3.50;;;15.50;93.60;;;15.92;60.95;99095.63;4963801;28;124010;-81
2022/10/31 04:47:48;;;;;;;8.73;3.80;;;15.50;93.70;;;15.88;61.21;99090.75;4969764;28;123933;-80
2022/10/31 04:50:14;;;;;;;7.13;3.73;;;15.40;93.70;;;15.89;61.18;99095.16;4971808;28;109139;-77
2022/10/31 04:52:45;;;;;;;8.57;4.57;;;15.40;93.70;;;15.89;61.10;99092.34;4978688;28;107883;-77
2022/10/31 04:55:13;;;;;;;5.80;3.57;;;15.40;93.70;;;15.88;61.06;99082.38;4969642;28;124077;-75
2022/10/31 04:57:49;;;;;;;8.40;4.07;;;15.40;93.70;;;15.90;61.19;99084.81;4970760;28;123744;-77
2022/10/31 05:00:19;;;;;;;6.70;4.13;;;15.40;93.70;;;15.89;60.91;99081.22;4973066;28;108245;-76
2022/10/31 05:02:57;;;;;;;7.93;3.80;;;15.40;93.70;;;15.88;61.13;99079.59;4970507;28;109064;-76
2022/10/31 05:05:28;;;;;;;5.17;3.43;;;15.40;93.70;;;15.87;61.10;99077.94;4971836;28;123993;-77
2022/10/31 05:07:55;;;;;;;5.70;3.70;;;15.40;93.90;;;15.87;61.04;99072.38;4962993;28;123824;-77
2022/10/31 05:10:26;;;;;;;6.67;3.80;;;15.40;93.70;;;15.87;60.95;99069.59;4966978;28;109186;-75
2022/10/31 05:12:56;;;;;;;5.17;3.63;;;15.40;93.70;;;15.85;60.56;99080.28;4984725;28;107755;-75
2022/10/31 05:15:25;;;;;;;5.90;3.50;;;15.40;93.70;;;15.85;61.22;99077.50;4968836;28;124413;-75
2022/10/31 05:17:53;;;;;;;9.00;3.97;;;15.40;93.70;;;15.83;61.06;99068.66;4964310;28;122970;-75
2022/10/31 05:20:23;;;;;;;5.20;3.60;;;15.40;93.70;;;15.80;61.01;99068.53;4982209;28;108130;-75
2022/10/31 05:22:53;;;;;;;7.93;3.73;;;15.40;93.70;;;15.79;61.01;99070.47;4970401;28;108879;-75
2022/10/31 05:25:23;;;;;;;4.97;3.10;;;15.30;93.60;;;15.77;60.80;99072.81;4968928;28;123997;-78
2022/10/31 05:27:51;;;;;;;8.50;3.80;;;15.30;93.60;;;15.77;60.90;99066.41;4957548;28;123022;-78
2022/10/31 05:30:22;;;;;;;7.10;3.67;;;15.30;93.60;;;15.75;60.87;99069.53;4966501;28;110238;-77
2022/10/31 05:32:50;;;;;;;8.43;3.87;;;15.30;93.60;;;15.73;60.77;99066.28;4986765;28;109029;-75
2022/10/31 05:35:20;;;;;;;5.73;3.63;;;15.30;93.60;;;15.71;61.10;99068.56;4970070;28;124150;-75
2022/10/31 05:37:47;;;;;;;4.80;3.60;;;15.30;93.60;;;15.70;60.85;99066.97;4970144;28;123865;-77
2022/10/31 05:40:16;;;;;;;6.83;3.50;;;15.30;93.60;;;15.66;60.65;99065.97;4970418;28;109354;-76
2022/10/31 05:42:43;;;;;;;7.50;3.53;;;15.30;93.60;;;15.66;60.74;99063.19;4972226;28;108357;-77
2022/10/31 05:45:15;;;;;;;9.57;3.97;;;15.20;93.60;;;15.62;60.68;99060.25;4965450;28;124340;-76
2022/10/31 05:47:52;;;;;;;6.50;3.80;;;15.20;93.60;;;15.59;60.85;99057.34;4956520;28;123854;-76
2022/10/31 05:50:18;;;;;;;5.60;3.20;;;15.10;93.50;;;15.57;60.82;99056.88;4953897;28;108926;-77
2022/10/31 05:52:45;;;;;;;5.37;3.40;;;15.10;93.50;;;15.55;60.78;99057.19;4988937;28;109057;-76
2022/10/31 05:55:12;;;;;;;6.50;3.37;;;15.10;93.50;;;15.52;60.99;99055.09;4957985;28;123852;-75
2022/10/31 05:57:38;;;;;;;6.17;3.47;;;15.10;93.50;;;15.51;60.76;99050.69;4954120;28;123012;-77
2022/10/31 06:00:06;;;;;;;5.83;3.20;;;15.10;93.50;;;15.49;60.75;99054.97;4968084;28;108024;-77
2022/10/31 06:02:34;;;;;;;8.60;3.37;;;15.10;93.50;;;15.48;60.69;99058.91;4967136;28;108474;-75
2022/10/31 06:05:01;;;;;;;8.00;3.80;;;15.00;93.50;;;15.46;60.72;99062.84;4967000;28;123219;-77
2022/10/31 06:07:33;;;;;;;7.43;3.30;;;15.00;93.50;;;15.45;60.88;99055.66;4958303;28;123892;-76
2022/10/31 06:10:02;;;;;;;6.17;4.00;;;15.00;93.50;;;15.42;60.68;99053.53;4962577;28;109259;-78
2022/10/31 06:12:29;;;;;;;7.40;4.10;;;15.00;93.50;;;15.40;60.86;99052.25;4983756;28;107947;-77
2022/10/31 06:14:56;;;;;;;6.37;3.90;;;15.00;93.50;;;15.39;60.90;99058.97;4987577;28;123920;-80
2022/10/31 06:17:22;;;;;;;11.03;4.00;;;14.90;93.50;;;15.38;60.77;99049.78;4958884;28;123749;-75
2022/10/31 06:19:49;;;;;;;4.90;3.10;;;14.90;93.50;;;15.37;60.84;99058.50;4984343;28;109129;-75
2022/10/31 06:22:15;;;;;;;5.93;3.80;;;14.90;93.50;;;15.36;60.89;99057.66;4952452;28;109919;-77
2022/10/31 06:24:42;;;;;;;8.33;3.70;;;14.90;93.50;;;15.35;60.91;99060.81;4953052;28;124167;-83
2022/10/31 06:27:08;;;;;;;6.00;3.33;;;14.90;93.50;;;15.35;61.14;99056.03;4966845;28;123083;-81
2022/10/31 06:29:35;;;;;;;5.70;3.70;;;14.90;93.50;;;15.34;60.83;99054.41;4965485;28;108871;-81
2022/10/31 06:32:01;;;;;;;7.40;3.37;;;14.90;93.60;;;15.35;61.12;99050.47;4975599;28;108656;-79
2022/10/31 06:34:27;;;;;;;9.40;3.30;;;14.90;93.60;;;15.39;60.97;99050.59;4954397;28;123822;-82
2022/10/31 06:36:54;;;;;;;5.57;3.67;;;14.90;93.60;;;15.42;60.96;99053.53;4959353;28;122928;-80
2022/10/31 06:39:20;;;;;;;4.30;3.60;;;14.90;93.60;;;15.44;60.86;99054.00;4963567;28;109170;-80
2022/10/31 06:41:48;;;;;;;7.60;3.67;;;14.90;93.60;;;15.48;60.75;99053.34;4965347;28;108304;-78
2022/10/31 06:44:14;;;;;;;5.83;3.40;;;15.00;93.90;;;15.43;60.89;99057.94;4961086;28;123066;-79
2022/10/31 06:46:41;;;;;;;7.00;4.10;;;14.90;93.60;;;15.43;60.91;99057.94;4951965;28;123803;-82
2022/10/31 06:49:07;;;;;;;5.70;4.23;;;14.90;93.90;;;15.43;60.89;99055.16;4951855;28;109215;-82
2022/10/31 06:51:34;;;;;;;8.73;4.07;;;14.90;93.70;;;15.44;61.05;99059.56;4956304;28;109084;-79
2022/10/31 06:54:00;;;;;;;10.53;4.30;;;14.90;93.80;;;15.45;61.04;99060.41;4966781;28;124673;-79
2022/10/31 06:56:27;;;;;;;8.83;5.00;;;14.90;93.80;;;15.46;61.05;99067.59;4966985;28;123218;-79
2022/10/31 06:58:53;;;;;;;6.70;3.70;;;14.90;93.80;;;15.43;61.13;99065.50;4935736;28;109209;-79
2022/10/31 07:01:21;;;;;;;5.93;4.23;;;14.90;93.90;;;15.43;61.29;99065.50;4966135;28;109051;-79
2022/10/31 07:03:47;;;;;;;7.73;4.00;;;14.90;93.90;;;15.44;61.06;99067.91;4967704;28;123272;-79
2022/10/31 07:06:14;;;;;;;7.73;3.97;;;15.00;94.00;;;15.47;61.34;99072.00;4963457;28;124042;-79
2022/10/31 07:08:40;;;;;;;6.10;3.80;;;14.90;93.90;;;15.51;61.21;99074.94;4966605;28;110842;-79
2022/10/31 07:11:07;;;;;;;6.37;3.93;;;15.00;93.90;;;15.52;61.12;99065.44;4968175;28;109929;-80
2022/10/31 07:13:33;;;;;;;8.50;4.40;;;15.10;93.90;;;15.51;60.83;99059.03;4967945;28;124256;-82
2022/10/31 07:16:04;;;;;;;10.57;3.93;;;15.10;93.90;;;15.51;61.01;99061.03;4966786;28;123989;-78
2022/10/31 07:18:31;;;;;;;5.40;3.70;;;15.00;93.90;;;15.53;60.95;99058.69;4967811;28;108853;-79
2022/10/31 07:20:57;;;;;;;8.43;4.20;;;15.00;93.90;;;15.55;61.01;99064.75;4971276;28;109241;-82
2022/10/31 07:23:24;;;;;;;10.53;5.03;;;13.40;93.20;;;15.58;61.15;99075.19;4969438;28;124498;-84
2022/10/31 07:25:58;;;;;;;9.00;4.00;;;15.00;93.90;;;15.59;61.22;99072.09;4970036;28;123841;-81
2022/10/31 07:28:26;;;;;;;11.50;4.63;;;15.00;94.00;;;15.59;61.38;99077.66;4969581;28;109170;-78
2022/10/31 07:30:55;;;;;;;15.33;4.90;;;15.00;94.10;;;15.61;61.46;99072.56;4969623;28;108229;-79
2022/10/31 07:33:22;;;;;;;8.40;4.60;;;15.10;94.20;;;15.65;61.35;99069.91;4970032;28;124409;-79
2022/10/31 07:35:49;;;;;;;10.73;3.93;;;15.10;94.20;;;15.71;61.50;99076.13;4969355;28;124498;-78
2022/10/31 07:38:18;;;;;;;7.20;4.00;;;15.10;94.20;;;15.73;61.19;99074.63;4974239;28;109427;-79
2022/10/31 07:40:50;;;;;;;7.80;3.90;;;15.20;94.20;;;15.74;61.32;99069.88;4975922;28;109133;-79
2022/10/31 07:43:16;;;;;;;11.20;5.07;;;15.20;94.20;;;15.73;61.46;99066.28;4972837;28;124103;-78
2022/10/31 07:45:43;;;;;;;9.30;6.10;;;15.20;94.20;;;15.71;61.57;99073.34;4972459;28;124379;-82
2022/10/31 07:48:09;;;;;;;9.07;4.57;;;15.10;94.30;;;15.66;61.54;99074.31;4975981;28;109258;-81
2022/10/31 07:50:36;;;;;;;7.00;4.67;;;15.10;94.30;;;15.60;61.64;99067.31;4975787;28;109003;-81
2022/10/31 07:53:07;;;;;;;7.93;4.10;;;15.00;94.40;;;15.58;61.74;99061.28;4972112;28;124026;-79
2022/10/31 07:55:34;;;;;;;8.63;4.30;;;15.00;94.40;;;15.61;61.94;99063.41;4968315;28;123842;-82
2022/10/31 07:58:06;;;;;;;6.40;3.97;;;15.10;94.40;;;15.65;61.66;99065.16;4973318;28;110334;-78
2022/10/31 08:00:35;;;;;;;6.93;4.70;;;15.10;94.40;;;15.70;61.68;99066.97;4980177;28;109313;-78
2022/10/31 08:03:08;;;;;;;9.00;3.90;;;15.10;94.40;;;15.73;61.52;99069.06;4972559;28;124085;-81
2022/10/31 08:05:35;;;;;;;15.73;4.40;;;15.20;94.40;;;15.76;61.65;99068.38;5006484;28;123731;-79
2022/10/31 08:14:50;;;;;;;9.70;4.40;;;15.30;94.40;;;15.87;62.12;99066.00;4975601;28;125085;-84
2022/10/31 08:17:16;;;;;;;8.30;4.20;;;15.30;94.50;;;15.92;61.90;99068.56;4970551;28;123939;-83
2022/10/31 08:19:43;;;;;;;5.63;4.10;;;15.40;94.60;;;15.98;61.75;99066.38;4968880;28;109117;-84
2022/10/31 08:22:09;;;;;;;6.70;3.93;;;15.40;94.60;;;16.04;61.73;99071.44;4972395;28;108948;-83
2022/10/31 08:24:36;;;;;;;6.80;3.57;;;15.50;94.60;;;16.12;61.89;99072.50;4971424;28;124142;-83
2022/10/31 08:27:02;;;;;;;8.23;3.83;;;15.50;94.60;;;16.17;61.67;99063.91;4971933;28;123905;-82
2022/10/31 08:29:29;;;;;;;6.20;3.80;;;15.60;94.60;;;16.20;61.23;99070.75;4972122;28;109310;-79
2022/10/31 08:31:58;;;;;;;11.33;4.23;;;15.70;94.50;;;16.24;61.10;99064.16;4965293;28;108996;-79
2022/10/31 08:34:24;;;;;;;8.33;3.80;;;15.70;94.40;;;16.28;60.95;99058.69;4962365;28;124193;-78
2022/10/31 08:36:52;;;;;;;5.97;3.93;;;15.70;94.30;;;16.31;60.88;99052.47;4972875;28;123806;-78
2022/10/31 08:39:18;;;;;;;11.73;4.60;;;15.70;94.20;;;16.35;60.77;99059.78;4972708;28;109480;-78
2022/10/31 08:41:45;;;;;;;10.93;3.90;;;15.80;94.20;;;16.41;60.75;99056.78;4974362;28;109187;-77
2022/10/31 08:44:11;;;;;;;6.73;4.40;;;15.80;94.20;;;16.45;60.44;99058.53;4971951;28;125149;-78
2022/10/31 08:46:40;;;;;;;8.07;3.80;;;15.90;94.20;;;16.51;60.61;99059.13;4969212;28;123860;-79
2022/10/31 08:49:07;;;;;;;11.20;5.00;;;15.90;94.10;;;16.55;60.21;99051.72;4972513;28;109777;-77
2022/10/31 08:51:33;;;;;;;17.03;5.37;;;15.90;94.00;;;16.54;59.88;99048.06;4971744;28;110219;-78
2022/10/31 08:54:00;;;;;;;6.60;3.60;;;15.90;93.90;;;16.53;60.19;99045.66;4971888;28;124137;-77
2022/10/31 08:56:26;;;;;;;10.83;5.90;;;15.90;93.90;;;16.53;60.26;99043.66;4970599;28;123903;-78
2022/10/31 08:58:54;;;;;;;8.60;5.40;;;15.90;93.90;;;16.57;60.02;99041.00;4974760;28;109364;-78
2022/10/31 09:01:20;;;;;;;6.30;4.27;;;16.00;93.90;;;16.62;59.90;99040.78;4972426;28;109178;-78
2022/10/31 09:03:47;;;;;;;7.20;3.90;;;16.00;93.90;;;16.62;60.01;99039.97;4970600;28;123997;-77
2022/10/31 09:06:13;;;;;;;8.27;4.27;;;16.00;93.90;;;16.66;59.81;99043.69;4971317;28;123824;-80
2022/10/31 09:08:40;;;;;;;11.07;4.10;;;16.00;93.90;;;16.70;60.08;99036.25;4969871;28;109119;-78
2022/10/31 09:11:07;;;;;;;13.53;5.37;;;16.10;93.90;;;16.74;59.67;99042.78;4971800;28;109091;-78
2022/10/31 09:13:33;;;;;;;10.40;5.00;;;16.20;93.80;;;16.78;59.74;99038.94;4974534;28;124331;-78
2022/10/31 09:16:00;;;;;;;9.73;4.13;;;16.20;93.80;;;16.83;59.64;99040.72;4971126;28;123661;-78
2022/10/31 09:18:31;;;;;;;8.03;4.77;;;16.20;93.70;;;16.82;59.33;99039.09;4964072;28;109406;-78
2022/10/31 09:21:00;;;;;;;7.90;4.37;;;16.20;93.50;;;16.83;59.29;99037.91;4967103;28;108832;-80
2022/10/31 09:23:27;;;;;;;10.30;4.20;;;16.20;93.60;;;16.88;59.42;99034.09;4971372;28;124518;-77
2022/10/31 09:25:54;;;;;;;10.30;4.37;;;16.30;93.60;;;16.94;59.23;99022.31;4973126;28;122612;-78
2022/10/31 09:28:23;;;;;;;7.60;3.90;;;16.30;93.60;;;16.99;59.26;99026.88;4973386;28;108310;-78
2022/10/31 09:30:52;;;;;;;7.60;4.10;;;16.40;93.60;;;17.03;59.13;99024.19;4970872;28;109097;-78
2022/10/31 09:33:20;;;;;;;11.70;4.37;;;16.40;93.50;;;17.08;59.04;99027.56;4970443;28;124154;-78
2022/10/31 09:35:47;;;;;;;11.50;4.70;;;16.50;93.50;;;17.13;58.83;99026.50;4971021;28;123763;-78
2022/10/31 09:38:20;;;;;;;9.93;5.13;;;16.50;93.40;;;17.12;58.72;99020.13;4972572;28;110061;-79
2022/10/31 09:40:55;;;;;;;15.73;5.20;;;16.50;93.30;;;17.14;58.43;99020.59;4971311;28;110125;-79
2022/10/31 09:43:50;;;;;;;8.90;5.10;;;16.50;93.30;;;17.12;58.47;99025.69;4970481;28;124295;-77
2022/10/31 09:53:45;;;;;;;9.07;5.30;;;15.50;92.60;;;17.04;58.30;99017.44;4969599;28;108830;-80
2022/10/31 09:56:19;;;;;;;15.77;5.00;;;16.50;93.10;;;16.98;58.71;99017.69;4952108;28;124316;-79
2022/10/31 09:58:55;;;;;;;15.80;4.80;;;16.40;93.10;;;17.00;58.75;99011.75;4956063;28;123735;-80
2022/10/31 10:01:40;;;;;;;12.73;5.40;;;16.40;93.20;;;17.05;58.76;99014.28;4969602;28;107205;-81
2022/10/31 10:04:34;;;;;;;8.20;4.60;;;16.50;93.20;;;17.12;58.80;99019.31;4967183;28;108977;-76
2022/10/31 10:07:16;;;;;;;14.13;4.80;;;16.50;93.20;;;17.17;58.50;99019.88;4951311;28;123234;-78
2022/10/31 10:09:44;;;;;;;14.53;5.83;;;16.60;93.30;;;17.23;58.47;99010.09;4962538;28;123865;-80
2022/10/31 10:12:53;;;;;;;17.13;6.23;;;16.60;93.20;;;17.26;58.32;99008.56;4970954;28;109324;-79
2022/10/31 10:16:17;;;;;;;9.83;5.10;;;16.70;93.10;;;17.27;58.32;99009.38;4989185;28;108909;-78
2022/10/31 10:19:22;;;;;;;10.73;4.80;;;16.70;93.10;;;17.33;58.49;99007.97;4969501;28;124546;-77
2022/10/31 10:22:15;;;;;;;12.77;5.33;;;16.80;93.20;;;17.43;58.40;99001.88;4963330;28;125853;-79
2022/10/31 10:25:21;;;;;;;10.80;5.53;;;16.80;93.20;;;17.50;58.25;99004.91;4957503;28;109230;-77
2022/10/31 10:28:20;;;;;;;13.00;5.40;;;16.90;93.10;;;17.59;58.04;99002.78;4969501;28;109842;-77
2022/10/31 10:30:57;;;;;;;11.17;5.57;;;17.00;93.10;;;17.67;57.72;98999.00;4969611;28;124570;-78
2022/10/31 10:33:32;;;;;;;8.70;4.70;;;17.10;93.00;;;17.73;57.82;98991.22;4968884;28;124601;-81
2022/10/31 10:36:08;;;;;;;9.63;5.43;;;17.10;92.90;;;17.83;57.34;98998.28;4969204;28;110137;-77
2022/10/31 10:38:48;;;;;;;9.50;6.07;;;17.20;92.90;;;17.90;57.37;98992.91;4971293;28;109457;-77
2022/10/31 10:41:21;;;;;;;11.40;5.50;;;17.20;92.80;;;17.97;56.92;98998.69;4968773;28;124483;-79
2022/10/31 10:43:54;;;;;;;15.47;5.67;;;17.30;92.70;;;18.02;57.10;98995.63;4968888;28;124254;-80